Impacts TAF Board INFO
FOR SITUATIONAL AWARENESS. NOT TO BE USED FOR FLIGHT PLANNING PURPOSES.
IDs:

KDCA - Washington/National, VA, US

Issued at 0520 UTC 26 Apr 2018
Updated at 0753 UTC 26 Apr 2018
Potential Impact None Slight Moderate High
Time0652Z 26/08Z 26/09Z 26/10Z 26/11Z 26/12Z 26/13Z 26/14Z 26/15Z 26/16Z 26/17Z 26/18Z 26/19Z 26/20Z>>
Type OBS PRVL PRVL PRVL PRVL PRVL PRVL PRVL PRVL PRVL PRVL PRVL PRVL PRVL
VIS 10 >6 >6 >6 >6 >6 >6 >6 >6 >6 >6 >6 >6 >6
CIG -- -- -- -- -- -- -- -- -- -- -- -- -- --
Cover FEW SCT SCT SCT SCT SCT SCT SCT SCT SCT SCT SCT SCT SCT
FltCat VFR VFR VFR VFR VFR VFR VFR VFR VFR VFR VFR VFR VFR VFR
WX -- -- -- -- -- -- -- -- -- -- -- -- -- --
WDir 310 320 320 320 320 320 320 320 320 320 320 290 290 290
WSpd 14 10 10 10 10 10 10 10 10 10 10 8 8 8
WGst -- 18 18 18 18 18 18 18 18 18 18 -- -- --

Raw TAF
KDCA 260520Z 2606/2712 32010G18KT P6SM SCT250
  FM261800 29008KT P6SM SCT250
  FM262300 VRB04KT P6SM SCT090 BKN200
  FM270900 03005KT 3SM -RA BKN025 OVC050


Raw METAR
KDCA 260652Z 31014KT 10SM FEW250 14/07 A2978 RMK AO2 SLP083 T01390072
KDCA 260552Z 31011KT 10SM FEW250 15/09 A2975 RMK AO2 SLP075 60000 T01500089 10172 20150 53006
KDCA 260452Z 33010KT 10SM FEW050 16/10 A2974 RMK AO2 SLP071 T01560100 401940128

METAR Board
Radar Display
Forecast Discussion

FOR SITUATIONAL AWARENESS. NOT TO BE USED FOR FLIGHT PLANNING PURPOSES.